Olstykke, Denmark
Current Conditions -  °F | °C
As of 8:20 AM on Saturday 29 Nov 2014 (Local Time) from EKRK Reporting Station
Overcast Overcast  
Wind Chill: 25°   Ceiling: 2200
Heat Index: 36°   Visibility: 6mi
Dew Point: 28°   Wind: 20mph
Humidity: 75%   Direction: 120°ESE
Pressure: 30.3"   Gusts: NA
Location:  55.8°N, 12.16°E
Report Text: EKRK 290720Z AUTO 12017KT 9999NDV FEW017/// BKN022///OVC026/// 02/M02 Q1026
Loading
Personal Weather Stations






























Interactive Weather Map New forecast layout! Learn more

10-Day Weather Forecast

Advertisements
Track Severe Weather on mobile